createdAt,value
2024-01-27T00:00:03.253Z,101714.41
2024-01-27T00:00:35.078Z,101710.91
2024-01-27T00:01:06.882Z,101723.28
2024-01-27T00:01:38.624Z,101711.84
2024-01-27T00:02:10.508Z,101717.97
2024-01-27T00:02:42.278Z,101710.91
2024-01-27T00:03:14.029Z,101708.22
2024-01-27T00:03:45.798Z,101710.91
2024-01-27T00:04:17.648Z,101711.75
2024-01-27T00:04:49.633Z,101710.91
2024-01-27T00:05:21.529Z,101715.28
2024-01-27T00:05:53.477Z,101710.91
2024-01-27T00:06:25.275Z,101712.72
2024-01-27T00:06:57.097Z,101708.22
2024-01-27T00:07:28.992Z,101712.72
2024-01-27T00:08:00.797Z,101705.56
2024-01-27T00:08:32.508Z,101710.91
2024-01-27T00:09:04.414Z,101715.28
2024-01-27T00:09:36.188Z,101710.91
2024-01-27T00:10:08.193Z,101708.13
2024-01-27T00:10:39.987Z,101717.97
2024-01-27T00:11:12.460Z,101717.97
2024-01-27T00:11:44.108Z,101723.28
2024-01-27T00:12:15.995Z,101718.91
2024-01-27T00:12:47.789Z,101716.22
2024-01-27T00:13:19.465Z,101725.97
2024-01-27T00:13:51.279Z,101726.81
2024-01-27T00:14:22.972Z,101721.47
2024-01-27T00:14:54.703Z,101727.75
2024-01-27T00:15:26.933Z,101732.16
2024-01-27T00:15:58.799Z,101725.97
2024-01-27T00:16:30.542Z,101728.63
2024-01-27T00:17:02.321Z,101729.56
2024-01-27T00:17:34.121Z,101728.63
2024-01-27T00:18:05.944Z,101731.28
2024-01-27T00:18:37.942Z,101733.97
2024-01-27T00:19:10.049Z,101726.91
2024-01-27T00:19:42.102Z,101723.28
2024-01-27T00:20:13.958Z,101725.97
2024-01-27T00:20:45.724Z,101725.97
2024-01-27T00:21:17.633Z,101719.75
2024-01-27T00:21:49.521Z,101720.63
2024-01-27T00:22:21.512Z,101724.13
2024-01-27T00:22:53.227Z,101731.28
2024-01-27T00:23:25.025Z,101727.66
2024-01-27T00:23:56.737Z,101726.91
2024-01-27T00:24:28.695Z,101732.25
2024-01-27T00:25:00.483Z,101730.31
2024-01-27T00:25:32.232Z,101721.47
2024-01-27T00:26:04.043Z,101730.31
2024-01-27T00:26:35.795Z,101731.28
2024-01-27T00:27:07.709Z,101725.09
2024-01-27T00:27:39.541Z,101727.75
2024-01-27T00:28:11.223Z,101729.47
2024-01-27T00:28:42.914Z,101728.63
2024-01-27T00:29:14.650Z,101731.28
2024-01-27T00:29:46.341Z,101732.16
2024-01-27T00:30:18.156Z,101731.28
2024-01-27T00:30:49.967Z,101736.63
2024-01-27T00:31:21.727Z,101733.97
2024-01-27T00:31:53.460Z,101733.97
2024-01-27T00:32:25.224Z,101734.81
2024-01-27T00:32:57.033Z,101741.00
2024-01-27T00:33:28.883Z,101739.31
2024-01-27T00:34:00.670Z,101741.97
2024-01-27T00:34:32.546Z,101740.16
2024-01-27T00:35:04.558Z,101736.63
2024-01-27T00:35:36.298Z,101738.31
2024-01-27T00:36:08.129Z,101741.97
2024-01-27T00:36:39.851Z,101744.63
2024-01-27T00:37:11.616Z,101740.16
2024-01-27T00:37:43.406Z,101739.31
2024-01-27T00:38:15.111Z,101744.63
2024-01-27T00:38:49.786Z,101738.41
2024-01-27T00:39:21.676Z,101744.63
2024-01-27T00:39:53.491Z,101745.47
2024-01-27T00:40:25.274Z,101745.47
2024-01-27T00:40:57.229Z,101744.63
2024-01-27T00:41:28.950Z,101739.31
2024-01-27T00:42:00.770Z,101739.31
2024-01-27T00:42:32.911Z,101743.66
2024-01-27T00:43:04.982Z,101747.31
2024-01-27T00:43:36.791Z,101740.16
2024-01-27T00:44:08.735Z,101749.97
2024-01-27T00:44:40.629Z,101744.63
2024-01-27T00:45:12.567Z,101746.31
2024-01-27T00:45:44.364Z,101745.47
2024-01-27T00:46:16.124Z,101745.47
2024-01-27T00:46:47.989Z,101754.34
2024-01-27T00:47:19.997Z,101744.63
2024-01-27T00:47:51.799Z,101749.97
2024-01-27T00:48:23.799Z,101745.47
2024-01-27T00:48:55.731Z,101747.31
2024-01-27T00:49:27.640Z,101756.16
2024-01-27T00:49:59.467Z,101750.91
2024-01-27T00:50:31.168Z,101755.31
2024-01-27T00:51:02.922Z,101747.31
2024-01-27T00:51:34.721Z,101756.16
2024-01-27T00:52:06.804Z,101752.63
2024-01-27T00:52:38.549Z,101760.66
2024-01-27T00:53:10.289Z,101759.75
2024-01-27T00:53:42.065Z,101760.66
2024-01-27T00:54:13.836Z,101762.34
2024-01-27T00:54:45.676Z,101762.34
2024-01-27T00:55:17.395Z,101765.88
2024-01-27T00:55:49.124Z,101760.66
2024-01-27T00:56:20.858Z,101762.34
2024-01-27T00:56:52.572Z,101764.16
2024-01-27T00:57:24.476Z,101763.31
2024-01-27T00:57:56.159Z,101761.50
2024-01-27T00:58:27.892Z,101765.97
2024-01-27T00:58:59.602Z,101756.25
2024-01-27T00:59:31.335Z,101757.97
2024-01-27T01:00:03.119Z,101759.75
2024-01-27T01:00:34.962Z,101763.31
2024-01-27T01:01:06.877Z,101757.97
2024-01-27T01:01:38.631Z,101762.34
2024-01-27T01:02:10.300Z,101758.81
2024-01-27T01:02:42.003Z,101764.16
2024-01-27T01:03:13.918Z,101765.00
2024-01-27T01:03:45.885Z,101761.50
2024-01-27T01:04:18.870Z,101754.34
2024-01-27T01:04:50.712Z,101760.66
2024-01-27T01:05:22.440Z,101764.16
2024-01-27T01:05:54.290Z,101762.34
2024-01-27T01:06:26.056Z,101756.16
2024-01-27T01:06:57.885Z,101764.16
2024-01-27T01:07:29.615Z,101756.16
2024-01-27T01:08:01.402Z,101763.22
2024-01-27T01:08:33.147Z,101762.34
2024-01-27T01:09:04.904Z,101762.34
2024-01-27T01:09:36.666Z,101764.16
2024-01-27T01:10:08.684Z,101757.00
2024-01-27T01:10:40.425Z,101757.00
2024-01-27T01:11:12.183Z,101750.81
2024-01-27T01:11:43.949Z,101759.66
2024-01-27T01:12:15.834Z,101763.22
2024-01-27T01:12:47.542Z,101763.22
2024-01-27T01:13:19.338Z,101760.53
2024-01-27T01:13:51.046Z,101764.16
2024-01-27T01:14:22.780Z,101767.66
2024-01-27T01:14:54.513Z,101768.53
2024-01-27T01:15:26.429Z,101768.53
2024-01-27T01:15:58.283Z,101773.00
2024-01-27T01:16:29.955Z,101769.50
2024-01-27T01:17:01.735Z,101766.81
2024-01-27T01:17:33.591Z,101762.34
2024-01-27T01:18:05.595Z,101767.66
2024-01-27T01:18:37.481Z,101766.72
2024-01-27T01:19:09.409Z,101767.66
2024-01-27T01:19:44.000Z,101769.50
2024-01-27T01:20:15.715Z,101772.16
2024-01-27T01:20:47.482Z,101773.88
2024-01-27T01:21:19.209Z,101762.34
2024-01-27T01:21:50.941Z,101773.00
2024-01-27T01:22:22.557Z,101770.34
2024-01-27T01:22:54.233Z,101773.00
2024-01-27T01:23:26.022Z,101770.34
2024-01-27T01:23:57.819Z,101771.22
2024-01-27T01:24:30.527Z,101771.22
2024-01-27T01:25:02.304Z,101772.16
2024-01-27T01:25:33.992Z,101769.50
2024-01-27T01:26:05.753Z,101773.00
2024-01-27T01:26:37.434Z,101766.81
2024-01-27T01:27:09.168Z,101769.41
2024-01-27T01:27:40.975Z,101772.06
2024-01-27T01:28:12.774Z,101765.00
2024-01-27T01:28:44.686Z,101767.66
2024-01-27T01:29:17.209Z,101773.88
2024-01-27T01:29:49.167Z,101773.00
2024-01-27T01:30:21.208Z,101766.81
2024-01-27T01:30:52.918Z,101771.31
2024-01-27T01:31:24.570Z,101769.50
2024-01-27T01:31:56.317Z,101767.75
2024-01-27T01:32:28.110Z,101773.00
2024-01-27T01:32:59.912Z,101772.16
2024-01-27T01:33:31.976Z,101772.16
2024-01-27T01:34:03.976Z,101776.56
2024-01-27T01:34:35.879Z,101785.50
2024-01-27T01:35:07.750Z,101781.00
2024-01-27T01:35:39.511Z,101775.66
2024-01-27T01:36:11.320Z,101781.00
2024-01-27T01:36:43.124Z,101778.34
2024-01-27T01:37:14.948Z,101781.00
2024-01-27T01:37:46.747Z,101784.56
2024-01-27T01:38:18.535Z,101785.50
2024-01-27T01:38:50.283Z,101784.56
2024-01-27T01:39:22.015Z,101784.56
2024-01-27T01:39:53.844Z,101786.34
2024-01-27T01:40:25.584Z,101780.16
2024-01-27T01:40:57.273Z,101784.56
2024-01-27T01:41:28.987Z,101786.34
2024-01-27T01:42:00.711Z,101781.00
2024-01-27T01:42:32.604Z,101781.88
2024-01-27T01:43:13.060Z,101784.56
2024-01-27T01:43:44.804Z,101783.69
2024-01-27T01:44:16.532Z,101781.97
2024-01-27T01:44:48.349Z,101775.66
2024-01-27T01:45:20.174Z,101781.00
2024-01-27T01:45:51.931Z,101778.34
2024-01-27T01:46:23.747Z,101784.56
2024-01-27T01:46:55.374Z,101784.56
2024-01-27T01:47:27.149Z,101790.75
2024-01-27T01:47:59.029Z,101783.69
2024-01-27T01:48:30.939Z,101781.97
2024-01-27T01:49:02.929Z,101787.22
2024-01-27T01:49:34.772Z,101785.41
2024-01-27T01:50:06.978Z,101784.56
2024-01-27T01:50:38.670Z,101787.22
2024-01-27T01:51:10.537Z,101789.88
2024-01-27T01:51:42.272Z,101784.56
2024-01-27T01:52:14.073Z,101792.56
2024-01-27T01:52:45.785Z,101783.69
2024-01-27T01:53:17.485Z,101785.41
2024-01-27T01:53:49.617Z,101791.69
2024-01-27T01:54:24.104Z,101790.75
2024-01-27T01:54:55.886Z,101783.69
2024-01-27T01:55:27.627Z,101789.00
2024-01-27T01:55:59.391Z,101788.16
2024-01-27T01:56:31.342Z,101787.22
2024-01-27T01:57:03.381Z,101779.22
2024-01-27T01:57:35.181Z,101787.31
2024-01-27T01:58:06.960Z,101782.72
2024-01-27T01:58:38.674Z,101781.00
2024-01-27T01:59:10.439Z,101785.41
2024-01-27T01:59:42.328Z,101782.72
2024-01-27T02:00:14.448Z,101778.34
2024-01-27T02:00:46.289Z,101780.06
2024-01-27T02:01:18.722Z,101778.34
2024-01-27T02:01:50.643Z,101773.00
2024-01-27T02:02:22.408Z,101767.66
2024-01-27T02:02:54.295Z,101775.66
2024-01-27T02:03:26.036Z,101774.72
2024-01-27T02:03:58.040Z,101772.06
2024-01-27T02:04:29.805Z,101775.66
2024-01-27T02:05:01.607Z,101769.41
2024-01-27T02:05:33.442Z,101774.72
2024-01-27T02:06:05.398Z,101774.72
2024-01-27T02:06:37.366Z,101772.06
2024-01-27T02:07:09.405Z,101768.53
2024-01-27T02:07:41.037Z,101772.06
2024-01-27T02:08:12.762Z,101767.66
2024-01-27T02:08:44.457Z,101780.91
2024-01-27T02:09:16.156Z,101772.06
2024-01-27T02:09:47.818Z,101772.06
2024-01-27T02:10:19.807Z,101774.72
2024-01-27T02:10:51.566Z,101770.34
2024-01-27T02:11:23.432Z,101774.72
2024-01-27T02:11:55.328Z,101775.56
2024-01-27T02:12:27.066Z,101775.66
2024-01-27T02:12:58.837Z,101774.72
2024-01-27T02:13:30.559Z,101767.66
2024-01-27T02:14:02.433Z,101774.72
2024-01-27T02:14:34.199Z,101768.53
2024-01-27T02:15:06.072Z,101775.66
2024-01-27T02:15:37.923Z,101774.72
2024-01-27T02:16:09.747Z,101776.56
2024-01-27T02:16:41.502Z,101773.88
2024-01-27T02:17:13.324Z,101774.72
2024-01-27T02:17:45.110Z,101779.22
2024-01-27T02:18:19.966Z,101779.22
2024-01-27T02:18:51.807Z,101773.00
2024-01-27T02:19:24.097Z,101769.41
2024-01-27T02:19:55.985Z,101772.06
2024-01-27T02:20:27.748Z,101769.41
2024-01-27T02:20:59.458Z,101778.34
2024-01-27T02:21:31.202Z,101772.06
2024-01-27T02:22:02.970Z,101767.66
2024-01-27T02:22:35.122Z,101767.66
2024-01-27T02:23:06.808Z,101769.41
2024-01-27T02:23:38.598Z,101768.53
2024-01-27T02:24:10.311Z,101763.22
2024-01-27T02:24:42.073Z,101765.88
2024-01-27T02:25:13.891Z,101767.56
2024-01-27T02:25:45.630Z,101759.66
2024-01-27T02:26:17.321Z,101764.06
2024-01-27T02:26:48.992Z,101771.22
2024-01-27T02:27:20.765Z,101764.81
2024-01-27T02:27:52.518Z,101772.16
2024-01-27T02:28:24.877Z,101767.66
2024-01-27T02:28:56.618Z,101774.72
2024-01-27T02:29:28.385Z,101772.06
2024-01-27T02:30:00.164Z,101774.72
2024-01-27T02:30:31.918Z,101777.41
2024-01-27T02:31:03.729Z,101772.06
2024-01-27T02:31:35.453Z,101774.72
2024-01-27T02:32:07.263Z,101777.41
2024-01-27T02:32:39.053Z,101779.22
2024-01-27T02:33:10.960Z,101776.56
2024-01-27T02:33:42.932Z,101777.41
2024-01-27T02:34:15.076Z,101776.47
2024-01-27T02:34:46.902Z,101775.56
2024-01-27T02:35:18.640Z,101772.06
2024-01-27T02:35:50.422Z,101764.91
2024-01-27T02:36:22.154Z,101764.06
2024-01-27T02:36:53.839Z,101770.25
2024-01-27T02:37:25.668Z,101769.41
2024-01-27T02:37:57.413Z,101771.22
2024-01-27T02:38:29.215Z,101768.53
2024-01-27T02:39:00.950Z,101769.41
2024-01-27T02:39:32.664Z,101774.72
2024-01-27T02:40:04.589Z,101773.00
2024-01-27T02:40:36.304Z,101775.56
2024-01-27T02:41:07.995Z,101775.56
2024-01-27T02:41:39.950Z,101773.88
2024-01-27T02:42:11.717Z,101772.91
2024-01-27T02:42:43.399Z,101768.53
2024-01-27T02:43:15.075Z,101774.72
2024-01-27T02:43:46.856Z,101772.91
2024-01-27T02:44:18.595Z,101772.06
2024-01-27T02:44:50.336Z,101773.88
2024-01-27T02:45:22.110Z,101774.72
2024-01-27T02:45:53.897Z,101775.56
2024-01-27T02:46:25.616Z,101777.41
2024-01-27T02:46:57.363Z,101774.72
2024-01-27T02:47:29.060Z,101775.56
2024-01-27T02:48:01.024Z,101777.41
2024-01-27T02:48:33.058Z,101764.06
2024-01-27T02:49:05.091Z,101772.06
2024-01-27T02:49:37.339Z,101773.00
2024-01-27T02:50:09.439Z,101774.72
2024-01-27T02:50:41.297Z,101769.41
2024-01-27T02:51:13.027Z,101772.06
2024-01-27T02:51:44.819Z,101774.72
2024-01-27T02:52:16.577Z,101774.72
2024-01-27T02:52:48.389Z,101773.88
2024-01-27T02:53:20.137Z,101779.22
2024-01-27T02:53:51.836Z,101780.91
2024-01-27T02:54:23.694Z,101776.47
2024-01-27T02:54:56.090Z,101776.56
2024-01-27T02:55:27.710Z,101773.88
2024-01-27T02:55:59.418Z,101773.88
2024-01-27T02:56:31.140Z,101780.06
2024-01-27T02:57:02.949Z,101780.91
2024-01-27T02:57:34.955Z,101776.47
2024-01-27T02:58:06.764Z,101774.72
2024-01-27T02:58:38.455Z,101777.41
2024-01-27T02:59:10.196Z,101774.72
2024-01-27T02:59:41.854Z,101774.72
2024-01-27T03:00:13.743Z,101780.06
2024-01-27T03:00:45.593Z,101781.78
2024-01-27T03:01:17.453Z,101777.41
2024-01-27T03:01:49.328Z,101782.63
2024-01-27T03:02:21.035Z,101773.88
2024-01-27T03:02:52.765Z,101775.56
2024-01-27T03:03:24.568Z,101769.41
2024-01-27T03:03:56.521Z,101774.72
2024-01-27T03:04:28.346Z,101775.56
2024-01-27T03:05:00.172Z,101772.91
2024-01-27T03:05:32.114Z,101769.41
2024-01-27T03:06:03.962Z,101770.25
2024-01-27T03:06:35.859Z,101775.56
2024-01-27T03:07:07.708Z,101768.53
2024-01-27T03:07:39.415Z,101769.41
2024-01-27T03:08:11.413Z,101765.88
2024-01-27T03:08:43.146Z,101769.41
2024-01-27T03:09:14.928Z,101770.25
2024-01-27T03:09:46.701Z,101777.31
2024-01-27T03:10:18.419Z,101770.25
2024-01-27T03:10:50.108Z,101770.25
2024-01-27T03:11:21.898Z,101774.72
2024-01-27T03:11:53.721Z,101772.91
2024-01-27T03:12:25.529Z,101775.56
2024-01-27T03:12:57.269Z,101773.78
2024-01-27T03:13:28.955Z,101776.47
2024-01-27T03:14:00.573Z,101778.25
2024-01-27T03:14:32.318Z,101771.97
2024-01-27T03:15:04.286Z,101773.78
2024-01-27T03:15:36.042Z,101770.25
2024-01-27T03:16:10.069Z,101770.25
2024-01-27T03:16:41.954Z,101780.06
2024-01-27T03:17:13.773Z,101772.91
2024-01-27T03:17:45.526Z,101774.72
2024-01-27T03:18:17.549Z,101777.41
2024-01-27T03:18:49.703Z,101774.72
2024-01-27T03:19:21.649Z,101772.06
2024-01-27T03:19:53.606Z,101775.56
2024-01-27T03:20:25.377Z,101776.47
2024-01-27T03:20:57.246Z,101781.78
2024-01-27T03:21:29.146Z,101790.63
2024-01-27T03:22:00.877Z,101781.78
2024-01-27T03:22:32.662Z,101787.13
2024-01-27T03:23:04.458Z,101782.72
2024-01-27T03:23:36.245Z,101786.25
2024-01-27T03:24:07.982Z,101781.78
2024-01-27T03:24:39.774Z,101785.31
2024-01-27T03:25:11.447Z,101781.78
2024-01-27T03:25:43.296Z,101777.41
2024-01-27T03:26:15.054Z,101786.25
2024-01-27T03:26:46.871Z,101779.13
2024-01-27T03:27:18.774Z,101789.78
2024-01-27T03:27:50.563Z,101782.72
2024-01-27T03:28:22.337Z,101783.59
2024-01-27T03:28:54.080Z,101784.47
2024-01-27T03:29:25.972Z,101788.91
2024-01-27T03:30:00.113Z,101792.47
2024-01-27T03:30:32.101Z,101792.47
2024-01-27T03:31:03.989Z,101787.97
2024-01-27T03:31:35.682Z,101783.59
2024-01-27T03:32:07.425Z,101790.75
2024-01-27T03:32:39.151Z,101787.13
2024-01-27T03:33:11.097Z,101785.41
2024-01-27T03:33:43.080Z,101782.63
2024-01-27T03:34:14.966Z,101788.91
2024-01-27T03:34:46.947Z,101788.91
2024-01-27T03:35:19.025Z,101794.16
2024-01-27T03:35:50.833Z,101796.06
2024-01-27T03:36:22.658Z,101792.47
2024-01-27T03:36:54.326Z,101791.59
2024-01-27T03:37:26.007Z,101788.91
2024-01-27T03:37:57.651Z,101792.47
2024-01-27T03:38:29.315Z,101792.47
2024-01-27T03:39:01.188Z,101791.50
2024-01-27T03:39:33.089Z,101790.75
2024-01-27T03:40:05.084Z,101793.31
2024-01-27T03:40:36.794Z,101788.81
2024-01-27T03:41:08.573Z,101787.13
2024-01-27T03:41:40.270Z,101787.97
2024-01-27T03:42:11.985Z,101789.78
2024-01-27T03:42:43.763Z,101779.13
2024-01-27T03:43:15.538Z,101777.41
2024-01-27T03:43:47.215Z,101779.13
2024-01-27T03:44:19.013Z,101781.78
2024-01-27T03:44:50.800Z,101776.47
2024-01-27T03:45:22.632Z,101774.72
2024-01-27T03:45:54.361Z,101784.47
2024-01-27T03:46:25.996Z,101776.47
2024-01-27T03:46:57.641Z,101772.06
2024-01-27T03:47:29.430Z,101774.72
2024-01-27T03:48:01.401Z,101775.56
2024-01-27T03:48:33.348Z,101778.25
2024-01-27T03:49:05.288Z,101779.13
2024-01-27T03:49:37.291Z,101781.78
2024-01-27T03:50:09.094Z,101776.47
2024-01-27T03:50:40.853Z,101779.13
2024-01-27T03:51:12.549Z,101781.78
2024-01-27T03:51:44.271Z,101786.25
2024-01-27T03:52:16.017Z,101781.78
2024-01-27T03:52:47.680Z,101785.41
2024-01-27T03:53:19.317Z,101789.78
2024-01-27T03:53:51.209Z,101789.78
2024-01-27T03:54:23.023Z,101787.97
2024-01-27T03:54:54.784Z,101787.13
2024-01-27T03:55:26.462Z,101793.31
2024-01-27T03:55:58.384Z,101786.25
2024-01-27T03:56:30.148Z,101792.47
2024-01-27T03:57:02.084Z,101784.47
2024-01-27T03:57:33.904Z,101785.41
2024-01-27T03:58:05.693Z,101784.47
2024-01-27T03:58:37.483Z,101782.63
2024-01-27T03:59:09.182Z,101782.72
2024-01-27T03:59:43.354Z,101784.47
2024-01-27T04:00:15.259Z,101781.78
2024-01-27T04:00:47.314Z,101785.41
2024-01-27T04:01:19.309Z,101779.13
2024-01-27T04:01:50.935Z,101774.72
2024-01-27T04:02:22.624Z,101774.63
2024-01-27T04:02:54.511Z,101787.13
2024-01-27T04:03:26.364Z,101787.13
2024-01-27T04:03:58.145Z,101784.47
2024-01-27T04:04:29.993Z,101786.25
2024-01-27T04:05:01.688Z,101793.31
2024-01-27T04:05:33.468Z,101792.47
2024-01-27T04:06:05.518Z,101792.47
2024-01-27T04:06:38.021Z,101784.47
2024-01-27T04:07:09.967Z,101782.63
2024-01-27T04:07:41.802Z,101792.47
2024-01-27T04:08:13.524Z,101792.47
2024-01-27T04:08:45.244Z,101787.97
2024-01-27T04:09:17.032Z,101798.66
2024-01-27T04:09:48.977Z,101789.78
2024-01-27T04:10:20.919Z,101792.47
2024-01-27T04:10:52.758Z,101789.78
2024-01-27T04:11:24.521Z,101789.78
2024-01-27T04:11:56.204Z,101792.47
2024-01-27T04:12:28.051Z,101787.13
2024-01-27T04:12:59.845Z,101787.97
2024-01-27T04:13:31.615Z,101787.13
2024-01-27T04:14:04.069Z,101788.81
2024-01-27T04:14:35.868Z,101780.06
2024-01-27T04:15:07.887Z,101781.78
2024-01-27T04:15:40.132Z,101786.16
2024-01-27T04:16:12.117Z,101783.59
2024-01-27T04:16:43.810Z,101779.13
2024-01-27T04:17:15.571Z,101779.97
2024-01-27T04:17:47.360Z,101787.13
2024-01-27T04:18:19.331Z,101784.47
2024-01-27T04:18:51.352Z,101775.56
2024-01-27T04:19:23.329Z,101783.47
2024-01-27T04:19:55.217Z,101775.56
2024-01-27T04:20:27.022Z,101781.78
2024-01-27T04:20:58.796Z,101778.25
2024-01-27T04:21:30.720Z,101776.47
2024-01-27T04:22:02.515Z,101779.97
2024-01-27T04:22:36.882Z,101781.78
2024-01-27T04:23:08.624Z,101782.63
2024-01-27T04:23:40.282Z,101789.78
2024-01-27T04:24:12.014Z,101788.81
2024-01-27T04:24:43.779Z,101788.81
2024-01-27T04:25:15.459Z,101789.78
2024-01-27T04:25:47.159Z,101783.47
2024-01-27T04:26:19.017Z,101792.47
2024-01-27T04:26:50.712Z,101789.78
2024-01-27T04:27:22.493Z,101792.47
2024-01-27T04:27:54.244Z,101787.13
2024-01-27T04:28:25.950Z,101792.47
2024-01-27T04:28:57.636Z,101787.13
2024-01-27T04:29:29.392Z,101780.91
2024-01-27T04:30:01.330Z,101781.78
2024-01-27T04:30:33.363Z,101778.16
2024-01-27T04:31:05.321Z,101779.13
2024-01-27T04:31:40.843Z,101783.47
2024-01-27T04:32:12.916Z,101771.97
2024-01-27T04:32:44.738Z,101778.16
2024-01-27T04:33:16.677Z,101779.13
2024-01-27T04:33:48.528Z,101777.31
2024-01-27T04:34:20.413Z,101795.03
2024-01-27T04:34:52.293Z,101781.78
2024-01-27T04:35:24.053Z,101786.16
2024-01-27T04:35:55.901Z,101788.91
2024-01-27T04:36:28.329Z,101782.63
2024-01-27T04:37:00.036Z,101789.69
2024-01-27T04:37:31.790Z,101786.16
2024-01-27T04:38:03.528Z,101781.78
2024-01-27T04:38:35.301Z,101781.78
2024-01-27T04:39:07.181Z,101778.16
2024-01-27T04:39:39.127Z,101778.16
2024-01-27T04:40:11.229Z,101780.91
2024-01-27T04:40:43.049Z,101784.47
2024-01-27T04:41:14.753Z,101786.25
2024-01-27T04:41:46.457Z,101785.31
2024-01-27T04:42:18.376Z,101787.97
2024-01-27T04:42:50.112Z,101788.81
2024-01-27T04:43:21.809Z,101779.13
2024-01-27T04:43:53.569Z,101789.78
2024-01-27T04:44:25.266Z,101787.13
2024-01-27T04:44:57.070Z,101788.81
2024-01-27T04:45:28.900Z,101781.78
2024-01-27T04:46:00.688Z,101776.47
2024-01-27T04:46:32.406Z,101786.16
2024-01-27T04:47:04.221Z,101781.78
2024-01-27T04:47:36.239Z,101780.91
2024-01-27T04:48:08.168Z,101788.81
2024-01-27T04:48:40.130Z,101779.13
2024-01-27T04:49:12.172Z,101785.31
2024-01-27T04:49:44.295Z,101787.97
2024-01-27T04:50:16.216Z,101788.81
2024-01-27T04:50:48.007Z,101793.31
2024-01-27T04:51:19.907Z,101794.16
2024-01-27T04:51:51.816Z,101788.81
2024-01-27T04:52:23.673Z,101788.81
2024-01-27T04:52:55.366Z,101790.63
2024-01-27T04:53:27.067Z,101792.47
2024-01-27T04:53:58.828Z,101799.50
2024-01-27T04:54:30.727Z,101793.31
2024-01-27T04:55:02.766Z,101795.97
2024-01-27T04:55:34.504Z,101786.16
2024-01-27T04:56:06.465Z,101798.66
2024-01-27T04:56:38.180Z,101799.50
2024-01-27T04:57:09.925Z,101797.81
2024-01-27T04:57:41.857Z,101798.66
2024-01-27T04:58:13.536Z,101801.41
2024-01-27T04:58:45.358Z,101814.66
2024-01-27T04:59:17.143Z,101810.16
2024-01-27T04:59:48.983Z,101804.81
2024-01-27T05:00:20.894Z,101805.81
2024-01-27T05:00:52.858Z,101804.81
2024-01-27T05:01:24.569Z,101811.03
2024-01-27T05:01:56.247Z,101804.81
2024-01-27T05:02:27.890Z,101807.50
2024-01-27T05:02:59.687Z,101814.66
2024-01-27T05:03:31.598Z,101815.50
2024-01-27T05:04:03.525Z,101815.50
2024-01-27T05:04:35.327Z,101815.50
2024-01-27T05:05:07.358Z,101808.38
2024-01-27T05:05:39.150Z,101814.66
2024-01-27T05:06:10.991Z,101812.84
2024-01-27T05:06:45.908Z,101819.13
2024-01-27T05:07:17.767Z,101823.50
2024-01-27T05:07:49.526Z,101817.31
2024-01-27T05:08:21.299Z,101815.50
2024-01-27T05:08:53.040Z,101816.47
2024-01-27T05:09:24.797Z,101821.72
2024-01-27T05:09:56.545Z,101820.84
2024-01-27T05:10:28.191Z,101828.00
2024-01-27T05:10:59.910Z,101826.16
2024-01-27T05:11:32.103Z,101820.00
2024-01-27T05:12:04.052Z,101826.16
2024-01-27T05:12:35.924Z,101821.72
2024-01-27T05:13:07.795Z,101820.84
2024-01-27T05:13:41.010Z,101818.16
2024-01-27T05:14:12.756Z,101815.50
2024-01-27T05:14:44.979Z,101823.50
2024-01-27T05:15:16.710Z,101824.38
2024-01-27T05:15:48.435Z,101820.00
2024-01-27T05:16:20.132Z,101824.38
2024-01-27T05:16:51.841Z,101821.72
2024-01-27T05:17:23.794Z,101827.06
2024-01-27T05:17:55.730Z,101826.16
2024-01-27T05:18:27.561Z,101820.84
2024-01-27T05:18:59.420Z,101830.66
2024-01-27T05:19:31.364Z,101828.00
2024-01-27T05:20:03.289Z,101821.81
2024-01-27T05:20:35.063Z,101823.50
2024-01-27T05:21:06.867Z,101824.47
2024-01-27T05:21:41.586Z,101819.13
2024-01-27T05:22:13.403Z,101826.16
2024-01-27T05:22:45.151Z,101826.16
2024-01-27T05:23:16.946Z,101821.81
2024-01-27T05:23:48.895Z,101829.72
2024-01-27T05:24:20.648Z,101832.38
2024-01-27T05:24:52.331Z,101830.66
2024-01-27T05:25:24.018Z,101832.38
2024-01-27T05:25:55.650Z,101835.16
2024-01-27T05:26:27.360Z,101827.16
2024-01-27T05:26:59.149Z,101831.50
2024-01-27T05:27:30.961Z,101824.47
2024-01-27T05:28:02.669Z,101827.16
2024-01-27T05:28:34.427Z,101834.16
2024-01-27T05:29:06.146Z,101834.16
2024-01-27T05:29:38.312Z,101831.50
2024-01-27T05:30:10.259Z,101834.16
2024-01-27T05:30:41.977Z,101831.50
2024-01-27T05:31:13.804Z,101834.16
2024-01-27T05:31:45.616Z,101828.84
2024-01-27T05:32:18.600Z,101828.84
2024-01-27T05:32:50.424Z,101822.66
2024-01-27T05:33:22.294Z,101826.28
2024-01-27T05:33:54.131Z,101822.66
2024-01-27T05:34:26.223Z,101828.00
2024-01-27T05:34:58.052Z,101829.81
2024-01-27T05:35:29.728Z,101827.91
2024-01-27T05:36:01.486Z,101831.50
2024-01-27T05:36:33.223Z,101830.66
2024-01-27T05:37:04.960Z,101835.16
2024-01-27T05:37:36.735Z,101831.50
2024-01-27T05:38:08.454Z,101829.81
2024-01-27T05:38:40.310Z,101828.84
2024-01-27T05:39:12.015Z,101826.28
2024-01-27T05:39:43.816Z,101824.47
2024-01-27T05:40:15.606Z,101821.81
2024-01-27T05:40:47.462Z,101821.81
2024-01-27T05:41:19.171Z,101826.16
2024-01-27T05:41:50.909Z,101826.16
2024-01-27T05:42:22.795Z,101824.47
2024-01-27T05:42:54.504Z,101826.16
2024-01-27T05:43:26.205Z,101824.47
2024-01-27T05:43:57.983Z,101826.16
2024-01-27T05:44:29.666Z,101829.72
2024-01-27T05:45:01.484Z,101821.81
2024-01-27T05:45:33.335Z,101826.16
2024-01-27T05:46:05.229Z,101824.47
2024-01-27T05:46:36.987Z,101828.94
2024-01-27T05:47:11.797Z,101828.84
2024-01-27T05:47:43.963Z,101825.31
2024-01-27T05:48:16.037Z,101827.91
2024-01-27T05:48:47.926Z,101825.31
2024-01-27T05:49:19.938Z,101827.06
2024-01-27T05:49:51.847Z,101819.13
2024-01-27T05:50:23.751Z,101823.50
2024-01-27T05:50:58.477Z,101822.66
2024-01-27T05:51:30.338Z,101824.47
2024-01-27T05:52:02.089Z,101827.16
2024-01-27T05:52:33.762Z,101825.31
2024-01-27T05:53:05.663Z,101833.31
2024-01-27T05:53:37.397Z,101830.66
2024-01-27T05:54:10.113Z,101828.00
2024-01-27T05:54:42.112Z,101837.81
2024-01-27T05:55:13.800Z,101835.16
2024-01-27T05:55:47.641Z,101827.16
2024-01-27T05:56:19.313Z,101835.06
2024-01-27T05:56:51.030Z,101826.16
2024-01-27T05:57:22.880Z,101833.31
2024-01-27T05:57:54.680Z,101831.50
2024-01-27T05:58:26.341Z,101832.47
2024-01-27T05:58:58.367Z,101826.16
2024-01-27T05:59:30.282Z,101834.16
2024-01-27T06:00:02.268Z,101842.19
2024-01-27T06:00:34.393Z,101844.84
2024-01-27T06:01:06.278Z,101844.00
2024-01-27T06:01:38.056Z,101839.50
2024-01-27T06:02:09.977Z,101838.56
2024-01-27T06:02:41.705Z,101840.47
2024-01-27T06:03:13.628Z,101835.16
2024-01-27T06:03:45.483Z,101840.47